createdAt,value
2022-12-08T00:03:25.811Z,0.50
2022-12-08T00:08:46.658Z,0.50
2022-12-08T00:13:48.982Z,0.60
2022-12-08T00:18:51.547Z,0.80
2022-12-08T00:23:55.523Z,1.00
2022-12-08T00:28:57.286Z,1.10
2022-12-08T00:34:00.948Z,1.20
2022-12-08T00:39:03.514Z,1.10
2022-12-08T00:44:10.815Z,1.00
2022-12-08T00:49:13.048Z,1.10
2022-12-08T00:54:14.854Z,1.00
2022-12-08T00:59:17.512Z,0.80
2022-12-08T01:04:20.558Z,0.80
2022-12-08T01:09:23.211Z,0.90
2022-12-08T01:14:25.751Z,0.90
2022-12-08T01:19:27.526Z,0.80
2022-12-08T01:24:29.354Z,0.80
2022-12-08T01:29:31.137Z,0.80
2022-12-08T01:34:32.916Z,0.70
2022-12-08T01:39:35.187Z,0.50
2022-12-08T01:44:42.877Z,0.50
2022-12-08T01:49:44.881Z,0.60
2022-12-08T01:54:58.255Z,0.70
2022-12-08T02:00:08.638Z,0.60
2022-12-08T02:05:11.418Z,0.80
2022-12-08T02:10:18.613Z,0.90
2022-12-08T02:15:41.949Z,0.90
2022-12-08T02:21:12.421Z,0.80
2022-12-08T02:26:40.671Z,0.90
2022-12-08T02:32:16.126Z,0.80
2022-12-08T02:37:26.494Z,0.70
2022-12-08T02:42:44.453Z,0.70
2022-12-08T02:47:46.767Z,0.70
2022-12-08T02:52:48.766Z,0.70
2022-12-08T02:58:17.306Z,0.70
2022-12-08T03:03:32.175Z,0.70
2022-12-08T03:08:53.981Z,0.60
2022-12-08T03:13:59.982Z,0.40
2022-12-08T03:19:11.088Z,0.30
2022-12-08T03:24:15.510Z,0.10
2022-12-08T03:29:18.683Z,0.20
2022-12-08T03:34:24.521Z,0.40
2022-12-08T03:39:26.439Z,0.50
2022-12-08T03:44:28.858Z,0.30
2022-12-08T03:49:30.668Z,0.30
2022-12-08T03:54:33.187Z,0.40
2022-12-08T03:59:35.029Z,0.10
2022-12-08T04:04:36.793Z,0.20
2022-12-08T04:09:40.929Z,0.30
2022-12-08T04:14:42.920Z,0.20
2022-12-08T04:19:44.950Z,0.30
2022-12-08T04:24:47.704Z,0.30
2022-12-08T04:29:50.558Z,0.40
2022-12-08T04:34:52.457Z,0.20
2022-12-08T04:39:54.591Z,0.20
2022-12-08T04:44:56.956Z,0.20
2022-12-08T04:49:59.084Z,0.20
2022-12-08T04:55:01.405Z,0.20
2022-12-08T05:00:07.900Z,-0.30
2022-12-08T05:05:10.111Z,-0.20
2022-12-08T05:10:14.201Z,-0.30
2022-12-08T05:15:16.617Z,-0.30
2022-12-08T05:20:19.058Z,-0.20
2022-12-08T05:25:20.896Z,-0.20
2022-12-08T05:30:23.970Z,-0.50
2022-12-08T05:35:26.298Z,-1.10
2022-12-08T05:40:28.644Z,-0.70
2022-12-08T05:45:31.058Z,-0.30
2022-12-08T05:50:32.926Z,-0.90
2022-12-08T05:55:35.289Z,-0.60
2022-12-08T06:00:37.291Z,-0.40
2022-12-08T06:05:41.191Z,-0.50
2022-12-08T06:10:44.585Z,-0.50
2022-12-08T06:15:46.525Z,-0.70
2022-12-08T06:20:48.337Z,-0.80
2022-12-08T06:25:50.489Z,-0.60
2022-12-08T06:30:52.522Z,-0.50
2022-12-08T06:35:54.372Z,-0.80
2022-12-08T06:40:57.758Z,-0.20
2022-12-08T06:46:00.997Z,0.10
2022-12-08T06:51:16.587Z,0.10
2022-12-08T06:56:19.455Z,0.10
2022-12-08T07:01:21.850Z,0.40
2022-12-08T07:06:24.979Z,0.30
2022-12-08T07:11:27.174Z,0.10
2022-12-08T07:16:29.364Z,0.20
2022-12-08T07:21:31.517Z,0.40
2022-12-08T07:26:33.670Z,0.70
2022-12-08T07:31:35.948Z,0.60
2022-12-08T07:36:37.668Z,0.70
2022-12-08T07:41:39.419Z,0.60
2022-12-08T07:46:41.777Z,0.70
2022-12-08T07:51:44.205Z,0.60
2022-12-08T07:56:46.034Z,0.60
2022-12-08T08:02:06.340Z,0.70
2022-12-08T08:06:51.735Z,0.90
2022-12-08T08:12:22.323Z,0.90
2022-12-08T08:16:57.565Z,0.90
2022-12-08T08:21:59.390Z,0.90
2022-12-08T08:27:01.169Z,0.60
2022-12-08T08:32:03.531Z,0.80
2022-12-08T08:37:05.390Z,0.60
2022-12-08T08:42:07.957Z,0.70
2022-12-08T08:47:10.638Z,0.70
2022-12-08T08:52:13.368Z,0.90
2022-12-08T08:57:17.454Z,0.90
2022-12-08T09:02:20.326Z,0.90
2022-12-08T09:07:23.031Z,1.00
2022-12-08T09:12:25.012Z,1.00
2022-12-08T09:17:27.237Z,1.20
2022-12-08T09:22:29.315Z,1.40
2022-12-08T09:27:31.861Z,1.70
2022-12-08T09:32:34.050Z,2.40
2022-12-08T09:37:35.921Z,2.20
2022-12-08T09:43:04.024Z,1.50
2022-12-08T09:48:13.559Z,1.50
2022-12-08T09:53:35.636Z,1.70
2022-12-08T09:58:57.725Z,1.60
2022-12-08T10:04:01.031Z,1.50
2022-12-08T10:09:23.319Z,1.20
2022-12-08T10:14:33.878Z,1.20
2022-12-08T10:19:37.861Z,0.80
2022-12-08T10:24:44.612Z,0.80
2022-12-08T10:29:46.382Z,1.10
2022-12-08T10:35:04.517Z,1.70
2022-12-08T10:40:16.991Z,1.70
2022-12-08T10:45:38.238Z,2.10
2022-12-08T10:50:52.064Z,2.10
2022-12-08T10:56:08.254Z,1.70
2022-12-08T11:01:26.912Z,2.00
2022-12-08T11:06:38.768Z,2.10
2022-12-08T11:11:56.881Z,2.20
2022-12-08T11:17:24.173Z,2.20
2022-12-08T11:22:45.600Z,2.20
2022-12-08T11:27:50.043Z,2.20
2022-12-08T11:32:59.878Z,2.30
2022-12-08T11:38:21.016Z,2.30
2022-12-08T11:43:23.738Z,2.30
2022-12-08T11:48:42.832Z,2.30
2022-12-08T11:54:13.459Z,2.40
2022-12-08T11:59:46.732Z,2.40
2022-12-08T12:05:05.522Z,2.40
2022-12-08T12:10:19.449Z,2.30
2022-12-08T12:15:51.374Z,2.30
2022-12-08T12:20:58.423Z,2.40
2022-12-08T12:26:08.316Z,2.50
2022-12-08T12:31:15.776Z,2.30
2022-12-08T12:36:19.076Z,2.30
2022-12-08T12:41:25.977Z,2.30
2022-12-08T12:46:36.935Z,2.30
2022-12-08T12:51:45.769Z,2.40
2022-12-08T12:56:55.873Z,2.50
2022-12-08T13:01:57.930Z,2.60
2022-12-08T13:07:00.359Z,2.50
2022-12-08T13:12:10.841Z,2.60
2022-12-08T13:17:18.259Z,2.60
2022-12-08T13:23:07.735Z,2.50
2022-12-08T13:28:26.627Z,2.30
2022-12-08T13:33:38.887Z,1.80
2022-12-08T13:38:45.025Z,1.90
2022-12-08T13:44:57.166Z,2.00
2022-12-08T13:51:23.937Z,2.00
2022-12-08T13:55:19.718Z,2.10
2022-12-08T13:59:44.286Z,2.00
2022-12-08T14:05:16.921Z,2.00
2022-12-08T14:09:52.138Z,1.90
2022-12-08T14:15:03.852Z,1.70
2022-12-08T14:20:16.524Z,1.70
2022-12-08T14:25:20.059Z,1.70
2022-12-08T14:30:33.436Z,1.50
2022-12-08T14:35:38.265Z,1.40
2022-12-08T14:41:07.373Z,1.40
2022-12-08T14:46:22.646Z,1.40
2022-12-08T14:51:31.770Z,1.40
2022-12-08T14:56:38.646Z,1.10
2022-12-08T15:01:43.180Z,1.10
2022-12-08T15:07:09.158Z,1.30
2022-12-08T15:12:26.668Z,1.50
2022-12-08T15:17:43.102Z,1.40
2022-12-08T15:22:45.026Z,1.30
2022-12-08T15:27:50.706Z,1.40
2022-12-08T15:32:52.398Z,1.30
2022-12-08T15:37:54.330Z,0.90
2022-12-08T15:42:57.438Z,0.80
2022-12-08T15:47:59.312Z,0.80
2022-12-08T15:53:01.198Z,0.90
2022-12-08T15:58:51.887Z,0.90
2022-12-08T16:03:34.576Z,0.90
2022-12-08T16:13:56.764Z,0.60
2022-12-08T16:18:49.141Z,0.60
2022-12-08T16:23:50.908Z,0.80
2022-12-08T16:28:55.064Z,0.90
2022-12-08T16:33:57.313Z,0.40
2022-12-08T16:39:00.776Z,0.40
2022-12-08T16:44:04.681Z,0.60
2022-12-08T16:49:08.938Z,0.50
2022-12-08T16:54:11.360Z,0.40
2022-12-08T16:59:13.095Z,0.50
2022-12-08T17:04:31.021Z,0.30
2022-12-08T17:09:19.786Z,0.50
2022-12-08T17:14:21.930Z,0.40
2022-12-08T17:19:24.153Z,0.60
2022-12-08T17:24:27.836Z,0.40
2022-12-08T17:29:31.605Z,0.30
2022-12-08T17:34:33.531Z,0.20
2022-12-08T17:39:37.368Z,0.30
2022-12-08T17:44:39.223Z,-0.30
2022-12-08T17:49:41.549Z,-0.70
2022-12-08T17:54:43.574Z,-0.60
2022-12-08T17:59:45.451Z,-0.30
2022-12-08T18:04:47.677Z,-0.30
2022-12-08T18:09:50.925Z,-0.30
2022-12-08T18:14:52.737Z,-0.20
2022-12-08T18:19:54.867Z,-0.40
2022-12-08T18:24:56.980Z,-0.50
2022-12-08T18:30:00.284Z,-0.20
2022-12-08T18:35:02.149Z,-0.30
2022-12-08T18:40:06.173Z,-0.10
2022-12-08T18:45:09.550Z,0.00
2022-12-08T18:50:12.284Z,-0.10
2022-12-08T18:55:16.098Z,-0.20
2022-12-08T19:00:20.196Z,-0.30
2022-12-08T19:05:22.944Z,-0.50
2022-12-08T19:10:25.810Z,-0.60
2022-12-08T19:15:28.478Z,-0.50
2022-12-08T19:20:30.653Z,-0.70
2022-12-08T19:25:33.953Z,-0.40
2022-12-08T19:30:35.917Z,-0.40
2022-12-08T19:35:38.565Z,-0.50
2022-12-08T19:41:01.246Z,-0.40
2022-12-08T19:46:08.734Z,-0.60
2022-12-08T19:51:11.845Z,-0.60
2022-12-08T19:56:14.632Z,-0.80
2022-12-08T20:01:19.276Z,-0.70
2022-12-08T20:06:22.622Z,-0.40
2022-12-08T20:11:24.534Z,-0.10
2022-12-08T20:16:26.497Z,0.20
2022-12-08T20:21:29.797Z,-0.20
2022-12-08T20:26:32.730Z,-0.40
2022-12-08T20:31:35.526Z,-0.30
2022-12-08T20:36:38.517Z,-0.10
2022-12-08T20:41:43.548Z,-0.30
2022-12-08T20:46:49.400Z,-0.20
2022-12-08T20:51:49.888Z,-1.30
2022-12-08T20:56:52.070Z,-1.00
2022-12-08T21:01:55.442Z,-0.80
2022-12-08T21:06:59.349Z,-1.20
2022-12-08T21:12:01.901Z,-1.00
2022-12-08T21:17:04.189Z,-1.00
2022-12-08T21:22:06.209Z,-1.00
2022-12-08T21:27:08.786Z,-1.10
2022-12-08T21:32:11.350Z,-1.40
2022-12-08T21:37:13.672Z,-1.40
2022-12-08T21:42:34.853Z,-1.40
2022-12-08T21:47:37.738Z,-1.40
2022-12-08T21:52:43.055Z,-1.30
2022-12-08T21:57:45.367Z,-1.10
2022-12-08T22:02:47.704Z,-0.90
2022-12-08T22:07:50.462Z,-1.10
2022-12-08T22:12:52.991Z,-1.30
2022-12-08T22:17:55.441Z,-1.00
2022-12-08T22:22:58.242Z,-1.20
2022-12-08T22:28:00.145Z,-1.30
2022-12-08T22:33:02.617Z,-1.30
2022-12-08T22:38:04.748Z,-1.50
2022-12-08T22:43:07.433Z,-1.90
2022-12-08T22:48:09.536Z,-2.00
2022-12-08T22:53:13.959Z,-1.70
2022-12-08T22:58:15.856Z,-1.60
2022-12-08T23:03:19.573Z,-1.70
2022-12-08T23:08:21.543Z,-1.80
2022-12-08T23:13:24.466Z,-2.10
2022-12-08T23:18:26.448Z,-2.10
2022-12-08T23:23:28.716Z,-1.90
2022-12-08T23:28:31.557Z,-1.70
2022-12-08T23:33:34.116Z,-1.90
2022-12-08T23:38:36.401Z,-1.70
2022-12-08T23:43:45.373Z,-1.70
2022-12-08T23:48:47.503Z,-1.70
2022-12-08T23:53:49.993Z,-1.80
2022-12-08T23:58:52.265Z,-1.90
